PKWA TAF

82.8 °F / 28.2 °C
78%
75.6°F / 24.2 °C
29.81" (1009 mb)
10 mile(s)
partly cloudy
2024.06.23 1740 UTC

PKWA TAF

2024/06/23 18:39
TAF PKWA 231732Z 2318/2418 07014G20KT P6SM VCSH SCT020 SCT050